Nautical Dream — D5FL6 — position and weather

sailwx.info

Track history (hours):
 
Tides and Currents Weather Stations Pressure Air Temp Water Temp Dewpoint Dewpoint Depression Visibility Wind Speed Wind Dir Waves Ship Positions

Nautical Dream

Last reported at 2017-Nov-17 09:15 UTC. Time now 2017-Nov-20 21:26 UTC.
Position N 36°23' E 014°55'.

Length 292 m; draft 15.6 m.

Type: Cargo ship. MMSI: 636016304.

Date/timePositionNaut miles runAvg speedWind from/ knotsBaromVisibWave heightAir tempDewpointWater temp
2017-Nov-17 09:15N 36°23' E 014°55'313.6
2017-Nov-17 09:00N 36°24' E 014°51'713.7
2017-Nov-17 08:29N 36°26' E 014°43'713.8
2017-Nov-17 08:00N 36°28' E 014°35'713.9
2017-Nov-17 07:30N 36°30' E 014°27'713.7
2017-Nov-17 07:00N 36°32' E 014°18'713.6
2017-Nov-17 06:30N 36°34' E 014°10'713.7
2017-Nov-17 06:00N 36°36' E 014°02'713.6
2017-Nov-17 05:30N 36°38' E 013°54'713.5
2017-Nov-17 05:00N 36°41' E 013°46'713.5
2017-Nov-17 04:29N 36°43' E 013°38'613.3
2017-Nov-17 04:00N 36°45' E 013°30'  
2017-Nov-14 07:10N 36°06' W 005°09'215.0
2017-Nov-14 07:00N 36°05' W 005°12'612.6
2017-Nov-14 06:30N 36°04' W 005°20'3 5.6
2017-Nov-14 06:00N 36°07' W 005°22'0 0.4
2017-Nov-14 04:51N 36°07' W 005°22'0 0.2
2017-Nov-14 04:27N 36°07' W 005°22'0 0.1
2017-Nov-14 03:45N 36°06' W 005°22'0 0.0
2017-Nov-14 03:30N 36°06' W 005°22'0 0.1
2017-Nov-14 02:57N 36°06' W 005°22'0 0.0
2017-Nov-14 02:30N 36°06' W 005°22'0 0.0
2017-Nov-14 02:00N 36°06' W 005°22'0 0.0
2017-Nov-14 01:24N 36°06' W 005°22'0 0.0
2017-Nov-14 00:45N 36°06' W 005°22'0 0.0
2017-Nov-14 00:12N 36°06' W 005°22'0 0.1
2017-Nov-14 00:00N 36°06' W 005°22'0 0.1
2017-Nov-13 23:30N 36°06' W 005°22'0 0.0
2017-Nov-13 23:00N 36°06' W 005°22'0 0.1
2017-Nov-13 22:30N 36°06' W 005°22'0 0.0
2017-Nov-13 22:00N 36°06' W 005°22'11 0.5
2017-Nov-13 02:01N 35°57' W 005°28'11013.5
2017-Nov-12 17:52N 35°55' W 007°43'513.4
2017-Nov-12 17:29N 35°55' W 007°50'913.4
2017-Nov-12 16:50N 35°55' W 008°01'413.2
2017-Nov-12 16:30N 35°55' W 008°06'1613.3
2017-Nov-12 15:19N 35°55' W 008°26'413.5
2017-Nov-12 15:00N 35°56' W 008°31'12312.1
2017-Nov-12 04:49N 35°57' W 011°03'1413.2
2017-Nov-12 03:47N 35°57' W 011°20'413.1
2017-Nov-12 03:30N 35°57' W 011°25'713.4
2017-Nov-12 03:00N 35°57' W 011°33'1513.6
2017-Nov-12 01:55N 35°57' W 011°51'4513.3
2017-Nov-11 22:31N 35°58' W 012°47'013.6
2017-Nov-11 22:30N 35°58' W 012°47'713.3
2017-Nov-11 22:00N 35°58' W 012°56'1013.0
2017-Nov-11 21:14N 35°58' W 013°08'7213.0
2017-Nov-11 15:39N 35°59' W 014°37'44712.3
2017-Nov-10 03:21N 36°05' W 023°50'411.6
2017-Nov-10 03:01N 36°05' W 023°55'611.8
2017-Nov-10 02:30N 36°05' W 024°02'611.6
2017-Nov-10 02:00N 36°05' W 024°09'612.0
2017-Nov-10 01:31N 36°05' W 024°16'612.0
2017-Nov-10 01:00N 36°05' W 024°24'612.0
2017-Nov-10 00:30N 36°05' W 024°31'612.0
2017-Nov-10 00:01N 36°05' W 024°39'612.1
2017-Nov-09 23:30N 36°05' W 024°46'612.1
2017-Nov-09 23:00N 36°05' W 024°54'612.1
2017-Nov-09 22:30N 36°05' W 025°01'612.1
2017-Nov-09 22:00N 36°05' W 025°09'612.4
2017-Nov-09 21:30N 36°05' W 025°16'612.4
2017-Nov-09 21:00N 36°06' W 025°24'612.5
2017-Nov-09 20:30N 36°06' W 025°32'612.6
2017-Nov-09 20:00N 36°06' W 025°40'612.5
2017-Nov-09 19:30N 36°06' W 025°47'612.6
2017-Nov-09 19:00N 36°06' W 025°55'612.4
2017-Nov-09 18:30N 36°06' W 026°03'612.2
2017-Nov-09 18:00N 36°06' W 026°10'712.5
2017-Nov-09 17:29N 36°06' W 026°18'  
Track history (hours):
 
Tides and Currents Weather Stations Pressure Air Temp Water Temp Dewpoint Dewpoint Depression Visibility Wind Speed Wind Dir Waves Ship Positions

Nautical Dream

Last reported at 2017-Nov-17 09:15 UTC. Time now 2017-Nov-20 21:26 UTC.
Position N 36°23' E 014°55'.

Length 292 m; draft 15.6 m.

Type: Cargo ship. MMSI: 636016304.

Date/timePositionNaut miles runAvg speedWind from/ knotsBaromVisibWave heightAir tempDewpointWater temp
2017-Nov-17 09:15N 36°23' E 014°55'313.6
2017-Nov-17 09:00N 36°24' E 014°51'713.7
2017-Nov-17 08:29N 36°26' E 014°43'713.8
2017-Nov-17 08:00N 36°28' E 014°35'713.9
2017-Nov-17 07:30N 36°30' E 014°27'713.7
2017-Nov-17 07:00N 36°32' E 014°18'713.6
2017-Nov-17 06:30N 36°34' E 014°10'713.7
2017-Nov-17 06:00N 36°36' E 014°02'713.6
2017-Nov-17 05:30N 36°38' E 013°54'713.5
2017-Nov-17 05:00N 36°41' E 013°46'713.5
2017-Nov-17 04:29N 36°43' E 013°38'613.3
2017-Nov-17 04:00N 36°45' E 013°30'  
2017-Nov-14 07:10N 36°06' W 005°09'215.0
2017-Nov-14 07:00N 36°05' W 005°12'612.6
2017-Nov-14 06:30N 36°04' W 005°20'3 5.6
2017-Nov-14 06:00N 36°07' W 005°22'0 0.4
2017-Nov-14 04:51N 36°07' W 005°22'0 0.2
2017-Nov-14 04:27N 36°07' W 005°22'0 0.1
2017-Nov-14 03:45N 36°06' W 005°22'0 0.0
2017-Nov-14 03:30N 36°06' W 005°22'0 0.1
2017-Nov-14 02:57N 36°06' W 005°22'0 0.0
2017-Nov-14 02:30N 36°06' W 005°22'0 0.0
2017-Nov-14 02:00N 36°06' W 005°22'0 0.0
2017-Nov-14 01:24N 36°06' W 005°22'0 0.0
2017-Nov-14 00:45N 36°06' W 005°22'0 0.0
2017-Nov-14 00:12N 36°06' W 005°22'0 0.1
2017-Nov-14 00:00N 36°06' W 005°22'0 0.1
2017-Nov-13 23:30N 36°06' W 005°22'0 0.0
2017-Nov-13 23:00N 36°06' W 005°22'0 0.1
2017-Nov-13 22:30N 36°06' W 005°22'0 0.0
2017-Nov-13 22:00N 36°06' W 005°22'11 0.5
2017-Nov-13 02:01N 35°57' W 005°28'11013.5
2017-Nov-12 17:52N 35°55' W 007°43'513.4
2017-Nov-12 17:29N 35°55' W 007°50'913.4
2017-Nov-12 16:50N 35°55' W 008°01'413.2
2017-Nov-12 16:30N 35°55' W 008°06'1613.3
2017-Nov-12 15:19N 35°55' W 008°26'413.5
2017-Nov-12 15:00N 35°56' W 008°31'12312.1
2017-Nov-12 04:49N 35°57' W 011°03'1413.2
2017-Nov-12 03:47N 35°57' W 011°20'413.1
2017-Nov-12 03:30N 35°57' W 011°25'713.4
2017-Nov-12 03:00N 35°57' W 011°33'1513.6
2017-Nov-12 01:55N 35°57' W 011°51'4513.3
2017-Nov-11 22:31N 35°58' W 012°47'013.6
2017-Nov-11 22:30N 35°58' W 012°47'713.3
2017-Nov-11 22:00N 35°58' W 012°56'1013.0
2017-Nov-11 21:14N 35°58' W 013°08'7213.0
2017-Nov-11 15:39N 35°59' W 014°37'44712.3
2017-Nov-10 03:21N 36°05' W 023°50'411.6
2017-Nov-10 03:01N 36°05' W 023°55'611.8
2017-Nov-10 02:30N 36°05' W 024°02'611.6
2017-Nov-10 02:00N 36°05' W 024°09'612.0
2017-Nov-10 01:31N 36°05' W 024°16'612.0
2017-Nov-10 01:00N 36°05' W 024°24'612.0
2017-Nov-10 00:30N 36°05' W 024°31'612.0
2017-Nov-10 00:01N 36°05' W 024°39'612.1
2017-Nov-09 23:30N 36°05' W 024°46'612.1
2017-Nov-09 23:00N 36°05' W 024°54'612.1
2017-Nov-09 22:30N 36°05' W 025°01'612.1
2017-Nov-09 22:00N 36°05' W 025°09'612.4
2017-Nov-09 21:30N 36°05' W 025°16'612.4
2017-Nov-09 21:00N 36°06' W 025°24'612.5
2017-Nov-09 20:30N 36°06' W 025°32'612.6
2017-Nov-09 20:00N 36°06' W 025°40'612.5
2017-Nov-09 19:30N 36°06' W 025°47'612.6
2017-Nov-09 19:00N 36°06' W 025°55'612.4
2017-Nov-09 18:30N 36°06' W 026°03'612.2
2017-Nov-09 18:00N 36°06' W 026°10'712.5
2017-Nov-09 17:29N 36°06' W 026°18'  

Dump ship's entire track history